Time;durP1;ratioP1;P1;durP2;ratioP2;P2;SDS_P1;SDS_P2;PMS_P1;PMS_P2;Temp;Humidity;BMP_temperature;BMP_pressure;BME280_temperature;BME280_humidity;BME280_pressure;Samples;Min_cycle;Max_cycle;Signal;HPM_P1;HPM_P2
2022/06/18 00:02:20;;;;;;;11.05;4.95;;;;;;;;;;5057192;28;20029;-60
2022/06/18 00:04:47;;;;;;;10.70;5.55;;;;;;;;;;5063966;28;20393;-61
2022/06/18 00:07:15;;;;;;;12.23;5.65;;;;;;;;;;5064108;28;20513;-61
2022/06/18 00:09:42;;;;;;;11.45;5.30;;;;;;;;;;5071737;28;20041;-60
2022/06/18 00:14:59;;;;;;;12.02;5.55;;;;;;;;;;5062034;28;20056;-61
2022/06/18 00:17:25;;;;;;;9.38;5.32;;;;;;;;;;5058698;28;20072;-61
2022/06/18 00:19:51;;;;;;;7.38;4.95;;;;;;;;;;5068406;28;20033;-60
2022/06/18 00:22:18;;;;;;;13.50;5.70;;;;;;;;;;5055916;28;20025;-61
2022/06/18 00:24:45;;;;;;;10.65;6.30;;;;;;;;;;5063936;28;20032;-61
2022/06/18 00:27:12;;;;;;;13.18;6.90;;;;;;;;;;5063149;28;20021;-60
2022/06/18 00:29:38;;;;;;;14.63;6.28;;;;;;;;;;5057068;28;20079;-60
2022/06/18 00:32:05;;;;;;;15.57;6.75;;;;;;;;;;5067677;28;20028;-60
2022/06/18 00:34:31;;;;;;;16.42;6.63;;;;;;;;;;5057494;28;20020;-60
2022/06/18 00:36:58;;;;;;;15.82;6.47;;;;;;;;;;5062642;28;20067;-60
2022/06/18 00:39:25;;;;;;;13.77;6.60;;;;;;;;;;5064017;28;20070;-60
2022/06/18 00:41:51;;;;;;;10.40;6.82;;;;;;;;;;5055116;28;20025;-60
2022/06/18 00:44:20;;;;;;;12.88;7.53;;;;;;;;;;5055289;28;20079;-60
2022/06/18 00:46:55;;;;;;;10.10;6.85;;;;;;;;;;5062990;28;20045;-60
2022/06/18 00:49:33;;;;;;;11.40;6.88;;;;;;;;;;5064189;28;20415;-60
2022/06/18 00:52:03;;;;;;;13.18;7.32;;;;;;;;;;5054839;28;20052;-60
2022/06/18 00:54:33;;;;;;;12.52;7.70;;;;;;;;;;5066622;28;20520;-60
2022/06/18 00:57:03;;;;;;;15.95;7.45;;;;;;;;;;5060664;28;20032;-60
2022/06/18 00:59:43;;;;;;;10.25;6.63;;;;;;;;;;5058212;28;20524;-60
2022/06/18 01:02:14;;;;;;;14.27;7.65;;;;;;;;;;5066680;28;20028;-60
2022/06/18 01:04:40;;;;;;;15.00;7.97;;;;;;;;;;5056878;28;20484;-60
2022/06/18 01:07:20;;;;;;;23.25;8.65;;;;;;;;;;5063807;28;20115;-60
2022/06/18 01:09:48;;;;;;;13.45;7.88;;;;;;;;;;5072850;28;20029;-60
2022/06/18 01:12:14;;;;;;;14.73;7.80;;;;;;;;;;5057330;28;20036;-60
2022/06/18 01:14:42;;;;;;;16.77;8.93;;;;;;;;;;5068200;28;20464;-60
2022/06/18 01:17:08;;;;;;;18.23;8.95;;;;;;;;;;5063961;28;20439;-60
2022/06/18 01:19:37;;;;;;;15.35;8.02;;;;;;;;;;5062108;28;20082;-60
2022/06/18 01:22:12;;;;;;;14.73;8.32;;;;;;;;;;5069974;28;20543;-60
2022/06/18 01:24:42;;;;;;;19.55;8.35;;;;;;;;;;5060211;28;20024;-60
2022/06/18 01:27:10;;;;;;;18.50;9.73;;;;;;;;;;5063688;28;20055;-60
2022/06/18 01:29:36;;;;;;;17.25;9.45;;;;;;;;;;5068909;28;20107;-60
2022/06/18 01:32:03;;;;;;;13.70;8.43;;;;;;;;;;5057030;28;20381;-60
2022/06/18 01:34:31;;;;;;;16.05;7.85;;;;;;;;;;5069697;28;20155;-60
2022/06/18 01:36:58;;;;;;;16.38;8.38;;;;;;;;;;5061686;28;20508;-60
2022/06/18 01:39:26;;;;;;;15.63;8.57;;;;;;;;;;5063288;28;20048;-60
2022/06/18 01:42:00;;;;;;;18.13;9.23;;;;;;;;;;5069706;28;20017;-60
2022/06/18 01:44:43;;;;;;;15.57;7.70;;;;;;;;;;5059052;28;20195;-60
2022/06/18 01:47:18;;;;;;;16.85;7.65;;;;;;;;;;5063264;28;20119;-60
2022/06/18 01:49:48;;;;;;;13.02;7.78;;;;;;;;;;5068324;28;20384;-60
2022/06/18 01:52:20;;;;;;;13.35;7.60;;;;;;;;;;5056271;28;20036;-60
2022/06/18 01:54:55;;;;;;;13.95;8.60;;;;;;;;;;5064985;28;20032;-60
2022/06/18 01:57:25;;;;;;;26.60;7.88;;;;;;;;;;5052996;28;20102;-60
2022/06/18 01:59:57;;;;;;;18.20;8.95;;;;;;;;;;5067593;28;20044;-60
2022/06/18 02:02:41;;;;;;;16.98;8.27;;;;;;;;;;5058865;28;20548;-60
2022/06/18 02:05:09;;;;;;;13.40;7.18;;;;;;;;;;5061995;28;20412;-60
2022/06/18 02:07:35;;;;;;;14.23;6.45;;;;;;;;;;5064853;28;20029;-60
2022/06/18 02:10:10;;;;;;;14.70;7.45;;;;;;;;;;5072718;28;20024;-60
2022/06/18 02:12:37;;;;;;;10.75;6.82;;;;;;;;;;5052396;28;20082;-60
2022/06/18 02:15:06;;;;;;;12.15;7.10;;;;;;;;;;5061822;28;20028;-60
2022/06/18 02:17:32;;;;;;;11.82;7.68;;;;;;;;;;5060691;28;20057;-60
2022/06/18 02:20:11;;;;;;;15.00;8.02;;;;;;;;;;5068587;28;20078;-60
2022/06/18 02:22:45;;;;;;;14.30;7.28;;;;;;;;;;5052270;28;20069;-60
2022/06/18 02:25:13;;;;;;;15.52;8.15;;;;;;;;;;5060883;28;20082;-60
2022/06/18 02:27:40;;;;;;;15.50;6.60;;;;;;;;;;5060218;28;20017;-60
2022/06/18 02:30:12;;;;;;;14.77;6.63;;;;;;;;;;5069269;28;20028;-60
2022/06/18 02:32:42;;;;;;;13.98;6.72;;;;;;;;;;5053264;28;20028;-60
2022/06/18 02:35:12;;;;;;;11.63;6.70;;;;;;;;;;5061008;28;20028;-60
2022/06/18 02:37:38;;;;;;;15.98;6.40;;;;;;;;;;5059176;28;20036;-60
2022/06/18 02:40:04;;;;;;;18.98;6.90;;;;;;;;;;5067912;28;20516;-60
2022/06/18 02:42:32;;;;;;;14.60;7.40;;;;;;;;;;5056189;28;20108;-60
2022/06/18 02:45:02;;;;;;;17.38;7.05;;;;;;;;;;5064323;28;20117;-60
2022/06/18 02:47:28;;;;;;;16.45;7.05;;;;;;;;;;5063588;28;20052;-60
2022/06/18 02:49:55;;;;;;;13.93;6.93;;;;;;;;;;5056600;28;20021;-60
2022/06/18 02:52:23;;;;;;;16.63;6.57;;;;;;;;;;5067698;28;20476;-60
2022/06/18 02:54:50;;;;;;;22.77;9.02;;;;;;;;;;5058283;28;20059;-60
2022/06/18 02:57:20;;;;;;;22.60;10.32;;;;;;;;;;5063348;28;20047;-60
2022/06/18 02:59:47;;;;;;;20.70;8.20;;;;;;;;;;5021459;28;1228196;-60
2022/06/18 03:02:13;;;;;;;22.52;10.35;;;;;;;;;;5055507;28;20025;-60
2022/06/18 03:04:39;;;;;;;29.95;12.52;;;;;;;;;;5069303;28;20136;-60
2022/06/18 03:07:05;;;;;;;20.65;11.15;;;;;;;;;;5060877;28;20024;-60
2022/06/18 03:12:06;;;;;;;18.30;8.60;;;;;;;;;;5071602;28;20028;-60
2022/06/18 03:12:17;;;;;;;18.95;9.68;;;;;;;;;;5055353;28;20039;-60
2022/06/18 03:14:44;;;;;;;17.80;9.30;;;;;;;;;;5069026;28;20592;-60
2022/06/18 03:17:10;;;;;;;18.38;10.93;;;;;;;;;;5061054;28;20029;-60
2022/06/18 03:19:39;;;;;;;25.95;12.93;;;;;;;;;;5054183;28;20091;-60
2022/06/18 03:22:09;;;;;;;22.38;11.13;;;;;;;;;;5070937;28;20035;-60
2022/06/18 03:24:36;;;;;;;29.17;13.15;;;;;;;;;;5061355;28;20032;-60
2022/06/18 03:27:03;;;;;;;24.58;13.73;;;;;;;;;;5064456;28;20021;-60
2022/06/18 03:29:30;;;;;;;23.70;12.65;;;;;;;;;;5060504;28;20035;-60
2022/06/18 03:31:57;;;;;;;24.50;13.30;;;;;;;;;;5057723;28;20078;-60
2022/06/18 03:34:26;;;;;;;26.98;13.85;;;;;;;;;;5067301;28;20025;-60
2022/06/18 03:36:54;;;;;;;26.92;14.68;;;;;;;;;;5061089;28;20477;-60
2022/06/18 03:39:22;;;;;;;24.33;14.88;;;;;;;;;;5069587;28;20032;-60
2022/06/18 03:41:49;;;;;;;34.80;18.98;;;;;;;;;;5059058;28;20021;-61
2022/06/18 03:44:16;;;;;;;25.30;16.27;;;;;;;;;;5064038;28;20033;-60
2022/06/18 03:46:43;;;;;;;26.08;17.35;;;;;;;;;;5054389;28;20028;-60
2022/06/18 03:49:16;;;;;;;;;;;;;;;;;;5062812;28;20037;-61
2022/06/18 03:51:42;;;;;;;30.70;19.52;;;;;;;;;;5055930;28;19915;-61
2022/06/18 03:54:08;;;;;;;31.75;18.88;;;;;;;;;;5058795;28;20021;-60
2022/06/18 03:56:34;;;;;;;31.25;18.52;;;;;;;;;;5052882;28;20021;-60
2022/06/18 03:59:03;;;;;;;32.47;20.90;;;;;;;;;;5058641;28;20045;-60
2022/06/18 04:01:33;;;;;;;33.70;19.88;;;;;;;;;;5058003;28;20060;-60
2022/06/18 04:04:02;;;;;;;36.35;20.77;;;;;;;;;;5064160;28;20040;-61
2022/06/18 04:06:34;;;;;;;39.97;20.80;;;;;;;;;;5035105;28;20028;-60
2022/06/18 04:09:06;;;;;;;;;;;;;;;;;;5042526;28;20053;-60
2022/06/18 04:11:33;;;;;;;37.25;20.55;;;;;;;;;;5056319;28;19909;-60
2022/06/18 04:14:00;;;;;;;39.45;19.55;;;;;;;;;;5069644;28;20029;-60
2022/06/18 04:16:40;;;;;;;34.75;19.25;;;;;;;;;;5070305;28;20427;-60
2022/06/18 04:19:17;;;;;;;37.53;18.73;;;;;;;;;;5062416;28;20029;-60
2022/06/18 04:21:44;;;;;;;32.53;16.48;;;;;;;;;;5050907;28;20079;-61
2022/06/18 04:24:10;;;;;;;34.00;16.52;;;;;;;;;;5051209;28;20370;-61
2022/06/18 04:26:42;;;;;;;29.23;14.82;;;;;;;;;;5050287;28;20040;-60
2022/06/18 04:29:08;;;;;;;30.60;14.00;;;;;;;;;;5050841;28;20064;-60
2022/06/18 04:31:34;;;;;;;26.33;12.02;;;;;;;;;;5054516;28;20397;-61
2022/06/18 04:34:00;;;;;;;22.92;12.25;;;;;;;;;;5050568;28;20021;-60
2022/06/18 04:36:37;;;;;;;23.08;12.07;;;;;;;;;;5050185;28;20146;-60
2022/06/18 04:39:21;;;;;;;22.35;12.05;;;;;;;;;;5054986;28;20119;-60
2022/06/18 04:42:05;;;;;;;25.65;11.68;;;;;;;;;;5059954;28;20133;-60
2022/06/18 04:44:31;;;;;;;23.88;11.50;;;;;;;;;;5060331;28;20043;-61
2022/06/18 04:47:13;;;;;;;23.38;11.90;;;;;;;;;;5057822;28;20075;-60
2022/06/18 04:49:40;;;;;;;24.02;11.93;;;;;;;;;;5050098;28;20025;-60
2022/06/18 04:52:09;;;;;;;18.35;11.55;;;;;;;;;;5057061;28;20020;-60
2022/06/18 04:54:46;;;;;;;24.23;11.70;;;;;;;;;;5053346;28;20137;-60
2022/06/18 04:57:12;;;;;;;20.77;11.13;;;;;;;;;;5050901;28;20025;-60
2022/06/18 04:59:41;;;;;;;19.60;11.75;;;;;;;;;;5057808;28;20509;-60
2022/06/18 05:02:14;;;;;;;23.65;11.20;;;;;;;;;;5052358;28;20087;-61
2022/06/18 05:05:13;;;;;;;27.25;11.52;;;;;;;;;;5046479;28;20061;-60
2022/06/18 05:08:01;;;;;;;22.45;11.60;;;;;;;;;;5056739;28;20079;-60
2022/06/18 05:10:45;;;;;;;24.02;12.65;;;;;;;;;;5052997;28;20362;-61
2022/06/18 05:13:40;;;;;;;26.20;13.63;;;;;;;;;;5053960;28;20503;-60
2022/06/18 05:16:23;;;;;;;;;;;;;;;;;;5061154;28;20036;-61
2022/06/18 05:18:49;;;;;;;30.70;14.65;;;;;;;;;;5058893;28;20303;-60
2022/06/18 05:21:15;;;;;;;25.88;13.45;;;;;;;;;;5056245;28;20025;-60
2022/06/18 05:23:43;;;;;;;35.10;16.73;;;;;;;;;;5054216;28;20025;-60
2022/06/18 05:26:15;;;;;;;27.75;15.25;;;;;;;;;;5054942;28;20543;-60
2022/06/18 05:28:42;;;;;;;34.38;16.92;;;;;;;;;;5055922;28;20036;-60
2022/06/18 05:31:08;;;;;;;33.85;15.43;;;;;;;;;;5055219;28;20476;-60
2022/06/18 05:33:34;;;;;;;29.48;15.07;;;;;;;;;;5053102;28;20120;-60
2022/06/18 05:36:01;;;;;;;32.08;15.95;;;;;;;;;;5055808;28;20039;-60
2022/06/18 05:38:28;;;;;;;31.13;13.85;;;;;;;;;;5052121;28;20025;-60
2022/06/18 05:40:54;;;;;;;25.00;13.43;;;;;;;;;;5054761;28;20029;-61
2022/06/18 05:43:20;;;;;;;26.65;14.35;;;;;;;;;;5053467;28;20025;-61
2022/06/18 05:45:49;;;;;;;29.10;15.30;;;;;;;;;;5053678;28;20020;-60
2022/06/18 05:48:15;;;;;;;28.70;13.98;;;;;;;;;;5053879;28;20025;-61
2022/06/18 05:50:42;;;;;;;29.00;14.57;;;;;;;;;;5056296;28;20021;-61
2022/06/18 05:53:09;;;;;;;32.05;16.23;;;;;;;;;;5057792;28;20409;-60
2022/06/18 05:55:40;;;;;;;31.70;16.40;;;;;;;;;;5056831;28;20499;-60
2022/06/18 05:58:33;;;;;;;28.20;16.05;;;;;;;;;;5056491;28;20029;-60
2022/06/18 06:01:11;;;;;;;28.20;15.48;;;;;;;;;;5056039;28;20071;-61
2022/06/18 06:03:37;;;;;;;31.98;17.02;;;;;;;;;;5063931;28;20029;-62
2022/06/18 06:06:04;;;;;;;33.17;17.00;;;;;;;;;;5067306;28;20465;-61
2022/06/18 06:08:32;;;;;;;32.28;16.38;;;;;;;;;;5067799;28;20024;-61
2022/06/18 06:13:43;;;;;;;35.22;17.83;;;;;;;;;;5071305;28;20120;-61
2022/06/18 06:16:11;;;;;;;32.53;17.20;;;;;;;;;;5063053;28;20111;-61
2022/06/18 06:18:37;;;;;;;28.48;16.73;;;;;;;;;;5066489;28;20033;-61
2022/06/18 06:21:04;;;;;;;32.78;17.15;;;;;;;;;;5064362;28;20492;-61
2022/06/18 06:23:30;;;;;;;31.95;16.77;;;;;;;;;;5069467;28;20032;-64
2022/06/18 06:25:56;;;;;;;31.52;16.30;;;;;;;;;;5068012;28;20086;-64
2022/06/18 06:28:24;;;;;;;32.78;17.48;;;;;;;;;;5067371;28;20400;-62
2022/06/18 06:30:50;;;;;;;33.08;16.02;;;;;;;;;;5068088;28;20477;-62
2022/06/18 06:33:18;;;;;;;29.77;16.35;;;;;;;;;;5059886;28;20012;-62
2022/06/18 06:35:44;;;;;;;29.10;15.45;;;;;;;;;;5052234;28;20021;-62
2022/06/18 06:38:11;;;;;;;33.50;16.00;;;;;;;;;;5061281;28;20036;-62
2022/06/18 06:40:38;;;;;;;26.48;16.45;;;;;;;;;;5053076;28;20025;-62
2022/06/18 06:43:07;;;;;;;28.52;15.48;;;;;;;;;;5056252;28;20497;-62
2022/06/18 06:45:34;;;;;;;31.17;15.27;;;;;;;;;;5053426;28;20026;-61
2022/06/18 06:48:00;;;;;;;28.13;15.70;;;;;;;;;;5058922;28;20493;-62
2022/06/18 06:50:27;;;;;;;24.00;15.07;;;;;;;;;;5054140;28;20031;-62
2022/06/18 06:52:53;;;;;;;26.92;14.70;;;;;;;;;;5056121;28;20041;-61
2022/06/18 06:58:06;;;;;;;23.20;12.88;;;;;;;;;;5057043;28;20040;-65
2022/06/18 07:00:33;;;;;;;25.73;14.10;;;;;;;;;;5055592;28;20424;-65
2022/06/18 07:03:00;;;;;;;24.27;14.27;;;;;;;;;;5054500;28;20031;-64
2022/06/18 07:05:26;;;;;;;23.98;14.35;;;;;;;;;;5055447;28;20025;-64
2022/06/18 07:07:52;;;;;;;33.35;15.43;;;;;;;;;;5055866;28;20029;-64
2022/06/18 07:10:18;;;;;;;30.58;14.85;;;;;;;;;;5054363;28;20426;-64
2022/06/18 07:12:44;;;;;;;26.83;13.68;;;;;;;;;;5055211;28;20031;-64
2022/06/18 07:15:11;;;;;;;29.58;14.05;;;;;;;;;;5054377;28;20028;-64
2022/06/18 07:17:37;;;;;;;26.77;13.40;;;;;;;;;;5050984;28;20033;-65
2022/06/18 07:20:05;;;;;;;30.60;14.80;;;;;;;;;;5053010;28;20017;-65
2022/06/18 07:22:32;;;;;;;29.40;13.45;;;;;;;;;;5055284;28;20029;-65
2022/06/18 07:25:00;;;;;;;33.40;13.40;;;;;;;;;;5056370;28;20029;-65
2022/06/18 07:27:26;;;;;;;27.17;12.63;;;;;;;;;;5053528;28;20083;-65
2022/06/18 07:29:52;;;;;;;23.02;11.30;;;;;;;;;;5051331;28;20029;-65
2022/06/18 07:32:20;;;;;;;34.08;11.90;;;;;;;;;;5061034;28;20020;-65
2022/06/18 07:34:46;;;;;;;25.77;12.05;;;;;;;;;;5055027;28;20027;-65
2022/06/18 07:37:12;;;;;;;25.05;12.63;;;;;;;;;;5061053;28;20024;-65
2022/06/18 07:39:38;;;;;;;25.83;12.13;;;;;;;;;;5054659;28;20017;-65
2022/06/18 07:42:06;;;;;;;30.52;12.40;;;;;;;;;;5054866;28;20493;-65
2022/06/18 07:44:32;;;;;;;25.25;11.18;;;;;;;;;;5057850;28;20032;-65
2022/06/18 07:47:01;;;;;;;27.17;10.27;;;;;;;;;;5051408;28;20041;-65
2022/06/18 07:49:27;;;;;;;25.48;10.27;;;;;;;;;;5054877;28;20523;-65
2022/06/18 07:51:53;;;;;;;24.48;9.77;;;;;;;;;;5051836;28;20037;-65
2022/06/18 07:54:20;;;;;;;23.02;8.73;;;;;;;;;;5059879;28;20025;-65
2022/06/18 07:56:46;;;;;;;23.30;9.15;;;;;;;;;;5053949;28;20021;-65
2022/06/18 07:59:12;;;;;;;27.80;10.15;;;;;;;;;;5053357;28;20080;-65
2022/06/18 08:01:39;;;;;;;22.60;8.25;;;;;;;;;;5058416;28;20033;-65
2022/06/18 08:04:05;;;;;;;21.73;8.77;;;;;;;;;;5059267;28;20055;-65
2022/06/18 08:06:32;;;;;;;23.70;7.78;;;;;;;;;;5054875;28;20043;-65
2022/06/18 08:08:58;;;;;;;19.20;8.52;;;;;;;;;;5057611;28;20034;-65
2022/06/18 08:11:29;;;;;;;22.88;9.18;;;;;;;;;;5054888;28;20346;-65
2022/06/18 08:13:57;;;;;;;15.48;7.57;;;;;;;;;;5055726;28;20104;-65
2022/06/18 08:16:23;;;;;;;21.63;7.35;;;;;;;;;;5058642;28;20029;-65
2022/06/18 08:18:49;;;;;;;30.27;8.60;;;;;;;;;;5057367;28;20052;-65
2022/06/18 08:21:17;;;;;;;25.25;8.07;;;;;;;;;;5058261;28;20028;-65
2022/06/18 08:23:44;;;;;;;24.25;7.65;;;;;;;;;;5063814;28;20538;-65
2022/06/18 08:26:10;;;;;;;19.42;7.43;;;;;;;;;;5061979;28;20024;-65
2022/06/18 08:28:37;;;;;;;20.20;8.30;;;;;;;;;;5063577;28;20082;-65
2022/06/18 08:31:04;;;;;;;19.23;6.63;;;;;;;;;;5058501;28;20052;-65
2022/06/18 08:33:30;;;;;;;25.45;8.05;;;;;;;;;;5065294;28;20075;-65
2022/06/18 08:36:01;;;;;;;16.38;7.32;;;;;;;;;;5062819;28;20476;-65
2022/06/18 08:38:28;;;;;;;20.63;7.38;;;;;;;;;;5063381;28;20036;-67
2022/06/18 08:41:00;;;;;;;19.25;7.32;;;;;;;;;;5060621;28;20032;-65
2022/06/18 08:43:45;;;;;;;20.38;7.35;;;;;;;;;;5057361;28;20025;-65
2022/06/18 08:46:29;;;;;;;22.73;6.97;;;;;;;;;;5060761;28;20498;-65
2022/06/18 08:48:55;;;;;;;25.15;10.35;;;;;;;;;;5064442;28;20032;-65
2022/06/18 08:51:24;;;;;;;29.20;9.27;;;;;;;;;;5059434;28;20025;-65
2022/06/18 08:54:01;;;;;;;17.73;7.28;;;;;;;;;;5060753;28;20017;-64
2022/06/18 08:56:28;;;;;;;24.50;9.02;;;;;;;;;;5063342;28;20067;-64
2022/06/18 08:59:12;;;;;;;17.17;6.60;;;;;;;;;;5063096;28;20049;-65
2022/06/18 09:01:40;;;;;;;26.90;6.80;;;;;;;;;;5064553;28;20437;-65
2022/06/18 09:04:29;;;;;;;25.80;6.68;;;;;;;;;;5062893;28;20093;-65
2022/06/18 09:07:14;;;;;;;17.45;6.72;;;;;;;;;;5038973;28;20114;-65
2022/06/18 09:09:52;;;;;;;19.40;6.18;;;;;;;;;;5047797;28;20045;-65
2022/06/18 09:12:21;;;;;;;19.40;6.85;;;;;;;;;;5032609;28;20053;-65
2022/06/18 09:14:52;;;;;;;21.65;6.25;;;;;;;;;;5037107;28;20030;-65
2022/06/18 09:17:30;;;;;;;10.73;5.20;;;;;;;;;;5042892;28;20065;-65
2022/06/18 09:20:08;;;;;;;15.38;4.55;;;;;;;;;;5047445;28;20021;-65
2022/06/18 09:22:35;;;;;;;18.63;4.95;;;;;;;;;;5036303;28;20057;-65
2022/06/18 09:25:03;;;;;;;15.40;5.30;;;;;;;;;;5044646;28;20044;-65
2022/06/18 09:27:39;;;;;;;11.93;5.03;;;;;;;;;;5049994;28;20532;-65
2022/06/18 09:30:09;;;;;;;6.72;3.78;;;;;;;;;;5048973;28;20029;-65
2022/06/18 09:32:35;;;;;;;12.02;4.20;;;;;;;;;;5050215;28;20025;-65
2022/06/18 09:35:08;;;;;;;13.43;4.15;;;;;;;;;;5051040;28;20092;-65
2022/06/18 09:37:34;;;;;;;18.05;4.07;;;;;;;;;;5050734;28;20033;-64
2022/06/18 09:40:02;;;;;;;15.68;4.13;;;;;;;;;;5050972;28;20511;-65
2022/06/18 09:42:34;;;;;;;10.40;4.03;;;;;;;;;;5051664;28;20132;-65
2022/06/18 09:45:04;;;;;;;10.35;3.80;;;;;;;;;;5054778;28;20634;-65
2022/06/18 09:47:41;;;;;;;13.07;4.45;;;;;;;;;;5062531;28;20057;-64
2022/06/18 09:50:16;;;;;;;12.07;4.90;;;;;;;;;;5054545;28;20048;-65
2022/06/18 09:52:45;;;;;;;13.50;3.80;;;;;;;;;;5059299;28;20024;-65
2022/06/18 09:55:31;;;;;;;11.77;3.95;;;;;;;;;;5061029;28;20025;-65
2022/06/18 09:57:59;;;;;;;16.75;3.83;;;;;;;;;;5057336;28;20041;-63
2022/06/18 10:00:29;;;;;;;13.68;4.43;;;;;;;;;;5067653;28;20514;-63
2022/06/18 10:03:01;;;;;;;17.48;4.18;;;;;;;;;;5055967;28;20032;-63
2022/06/18 10:08:13;;;;;;;17.10;4.55;;;;;;;;;;5055138;28;19958;-63
2022/06/18 10:10:46;;;;;;;13.27;3.83;;;;;;;;;;5058407;28;20017;-63
2022/06/18 10:13:18;;;;;;;16.13;4.43;;;;;;;;;;5061399;28;20047;-63
2022/06/18 10:15:44;;;;;;;;;;;;;;;;;;5058319;28;20021;-63
2022/06/18 10:18:16;;;;;;;23.75;4.60;;;;;;;;;;5057023;28;19919;-63
2022/06/18 10:20:45;;;;;;;20.63;4.18;;;;;;;;;;5059249;28;20025;-63
2022/06/18 10:23:21;;;;;;;14.25;3.97;;;;;;;;;;5055879;28;20032;-63
2022/06/18 10:25:47;;;;;;;21.90;4.03;;;;;;;;;;5057670;28;20048;-63
2022/06/18 10:28:32;;;;;;;19.10;4.47;;;;;;;;;;5054774;28;20040;-63
2022/06/18 10:31:04;;;;;;;10.57;3.40;;;;;;;;;;5056268;28;20123;-63
2022/06/18 10:33:41;;;;;;;17.13;4.10;;;;;;;;;;5052819;28;20485;-63
2022/06/18 10:36:20;;;;;;;9.77;3.63;;;;;;;;;;5059669;28;20016;-63
2022/06/18 10:38:46;;;;;;;9.30;3.42;;;;;;;;;;5052833;28;20036;-63
2022/06/18 10:41:18;;;;;;;15.30;4.45;;;;;;;;;;5064106;28;20435;-62
2022/06/18 10:43:56;;;;;;;10.20;4.35;;;;;;;;;;5052933;28;20051;-63
2022/06/18 10:46:22;;;;;;;12.98;5.30;;;;;;;;;;5062239;28;20024;-63
2022/06/18 10:48:52;;;;;;;13.02;5.80;;;;;;;;;;5057400;28;20031;-62
2022/06/18 10:51:20;;;;;;;13.80;5.88;;;;;;;;;;5055607;28;20035;-62
2022/06/18 10:53:48;;;;;;;9.20;5.20;;;;;;;;;;5058586;28;20021;-63
2022/06/18 10:56:15;;;;;;;9.02;5.28;;;;;;;;;;5057092;28;20419;-62
2022/06/18 10:58:51;;;;;;;15.15;5.35;;;;;;;;;;5059765;28;20045;-63
2022/06/18 11:01:22;;;;;;;13.00;5.38;;;;;;;;;;5055417;28;20033;-62
2022/06/18 11:03:56;;;;;;;11.23;5.05;;;;;;;;;;5056585;28;20027;-62
2022/06/18 11:06:22;;;;;;;11.30;5.82;;;;;;;;;;5054039;28;20436;-62
2022/06/18 11:08:56;;;;;;;14.98;5.65;;;;;;;;;;5058658;28;20158;-63
2022/06/18 11:11:35;;;;;;;14.73;5.75;;;;;;;;;;5059267;28;20024;-62
2022/06/18 11:14:08;;;;;;;16.15;7.35;;;;;;;;;;5059852;28;20054;-62
2022/06/18 11:16:40;;;;;;;18.20;7.10;;;;;;;;;;5060181;28;20480;-62
2022/06/18 11:19:15;;;;;;;21.05;7.20;;;;;;;;;;5063034;28;20024;-62
2022/06/18 11:21:45;;;;;;;20.88;8.02;;;;;;;;;;5056770;28;20056;-63
2022/06/18 11:24:12;;;;;;;24.88;9.18;;;;;;;;;;5061111;28;20072;-62
2022/06/18 11:26:40;;;;;;;27.48;8.73;;;;;;;;;;5058244;28;20462;-63
2022/06/18 11:29:14;;;;;;;21.15;8.65;;;;;;;;;;5059375;28;20029;-62
2022/06/18 11:31:45;;;;;;;25.20;8.18;;;;;;;;;;5054167;28;20029;-62
2022/06/18 11:34:19;;;;;;;23.98;8.80;;;;;;;;;;5051907;28;20086;-63
2022/06/18 11:36:50;;;;;;;20.88;8.15;;;;;;;;;;5052743;28;20493;-62
2022/06/18 11:39:28;;;;;;;25.42;9.45;;;;;;;;;;5061018;28;20551;-62
2022/06/18 11:41:57;;;;;;;26.77;8.00;;;;;;;;;;5052161;28;20036;-62
2022/06/18 11:44:29;;;;;;;17.40;8.07;;;;;;;;;;5053350;28;20025;-62
2022/06/18 11:47:01;;;;;;;27.52;8.43;;;;;;;;;;5056142;28;20036;-62
2022/06/18 11:49:34;;;;;;;24.48;8.45;;;;;;;;;;5053169;28;20444;-62
2022/06/18 11:52:03;;;;;;;20.33;8.50;;;;;;;;;;5065532;28;20025;-62
2022/06/18 11:54:34;;;;;;;24.15;9.52;;;;;;;;;;5063483;28;20021;-62
2022/06/18 11:57:18;;;;;;;20.00;7.35;;;;;;;;;;5058559;28;20052;-62
2022/06/18 11:59:46;;;;;;;16.85;7.88;;;;;;;;;;5058440;28;20037;-62
2022/06/18 12:02:18;;;;;;;18.58;7.60;;;;;;;;;;5068214;28;20067;-62
2022/06/18 12:04:52;;;;;;;25.17;7.80;;;;;;;;;;5052591;28;20072;-62
2022/06/18 12:07:32;;;;;;;19.95;8.27;;;;;;;;;;5054432;28;20082;-62
2022/06/18 12:09:58;;;;;;;18.02;7.70;;;;;;;;;;5068176;28;20041;-62
2022/06/18 12:12:27;;;;;;;18.50;6.72;;;;;;;;;;5068198;28;20563;-62
2022/06/18 12:15:02;;;;;;;17.92;6.45;;;;;;;;;;5059248;28;20066;-62
2022/06/18 12:17:31;;;;;;;20.23;8.18;;;;;;;;;;5059585;28;20123;-62
2022/06/18 12:20:02;;;;;;;19.40;6.75;;;;;;;;;;5066387;28;20047;-62
2022/06/18 12:22:46;;;;;;;14.63;5.97;;;;;;;;;;5053756;28;20497;-62
2022/06/18 12:25:16;;;;;;;19.85;6.68;;;;;;;;;;5062007;28;20124;-62
2022/06/18 12:27:45;;;;;;;11.57;5.63;;;;;;;;;;5061139;28;20120;-62
2022/06/18 12:30:11;;;;;;;16.52;6.30;;;;;;;;;;5057099;28;20082;-62
2022/06/18 12:32:49;;;;;;;20.75;7.15;;;;;;;;;;5058168;28;20021;-62
2022/06/18 12:35:19;;;;;;;14.80;5.53;;;;;;;;;;5053361;28;20029;-62
2022/06/18 12:37:51;;;;;;;16.92;6.93;;;;;;;;;;5055556;28;20515;-62
2022/06/18 12:40:17;;;;;;;17.00;6.25;;;;;;;;;;5053175;28;20025;-62
2022/06/18 12:42:46;;;;;;;19.02;6.75;;;;;;;;;;5065099;28;20032;-62
2022/06/18 12:45:18;;;;;;;20.67;6.75;;;;;;;;;;5058114;28;20025;-62
2022/06/18 12:47:53;;;;;;;16.35;6.63;;;;;;;;;;5057506;28;20500;-62
2022/06/18 12:50:31;;;;;;;22.73;8.23;;;;;;;;;;5056904;28;20035;-62
2022/06/18 12:53:13;;;;;;;14.00;6.97;;;;;;;;;;5060924;28;20045;-62
2022/06/18 12:55:54;;;;;;;20.52;6.35;;;;;;;;;;5051156;28;20017;-62
2022/06/18 12:58:26;;;;;;;17.33;7.13;;;;;;;;;;5057868;28;20044;-62
2022/06/18 13:00:56;;;;;;;28.85;7.90;;;;;;;;;;5057055;28;20035;-62
2022/06/18 13:03:29;;;;;;;26.08;7.80;;;;;;;;;;5062943;28;20142;-62
2022/06/18 13:06:00;;;;;;;24.88;7.15;;;;;;;;;;5068187;28;20025;-62
2022/06/18 13:08:33;;;;;;;20.58;6.82;;;;;;;;;;5068746;28;20028;-62
2022/06/18 13:11:07;;;;;;;16.50;6.80;;;;;;;;;;5061542;28;20025;-62
2022/06/18 13:13:52;;;;;;;16.90;7.05;;;;;;;;;;5065937;28;20492;-62
2022/06/18 13:16:24;;;;;;;17.02;6.93;;;;;;;;;;5069396;28;20057;-62
2022/06/18 13:19:00;;;;;;;23.08;7.50;;;;;;;;;;5069267;28;20025;-62
2022/06/18 13:21:26;;;;;;;13.20;7.20;;;;;;;;;;5057119;28;20040;-62
2022/06/18 13:29:24;;;;;;;22.50;7.72;;;;;;;;;;5072678;28;20062;-62
2022/06/18 13:31:50;;;;;;;24.20;7.85;;;;;;;;;;5070917;28;20063;-62
2022/06/18 13:34:26;;;;;;;21.17;7.45;;;;;;;;;;5062570;28;20520;-62
2022/06/18 13:36:55;;;;;;;25.05;8.30;;;;;;;;;;5064569;28;20575;-62
2022/06/18 13:39:22;;;;;;;23.05;7.57;;;;;;;;;;5064284;28;20037;-62
2022/06/18 13:42:00;;;;;;;23.20;8.43;;;;;;;;;;5066706;28;20160;-62
2022/06/18 13:44:29;;;;;;;15.75;6.70;;;;;;;;;;5069691;28;20479;-62
2022/06/18 13:46:55;;;;;;;15.00;7.55;;;;;;;;;;5064719;28;20033;-62
2022/06/18 13:49:37;;;;;;;14.57;7.15;;;;;;;;;;5064160;28;20033;-62
2022/06/18 13:52:05;;;;;;;22.25;7.75;;;;;;;;;;5061887;28;20024;-62
2022/06/18 13:54:41;;;;;;;22.42;7.88;;;;;;;;;;5068457;28;20056;-62
2022/06/18 13:57:07;;;;;;;18.23;7.50;;;;;;;;;;5060330;28;20021;-62
2022/06/18 13:59:34;;;;;;;17.65;7.13;;;;;;;;;;5068512;28;20073;-62
2022/06/18 14:02:02;;;;;;;16.02;7.60;;;;;;;;;;5061942;28;20366;-62
2022/06/18 14:04:34;;;;;;;20.20;7.28;;;;;;;;;;5058742;28;20025;-62
2022/06/18 14:07:04;;;;;;;20.45;7.50;;;;;;;;;;5054153;28;20115;-62
2022/06/18 14:09:32;;;;;;;18.95;7.93;;;;;;;;;;5060874;28;20090;-62
2022/06/18 14:12:01;;;;;;;19.38;7.13;;;;;;;;;;5064369;28;20029;-62
2022/06/18 14:14:35;;;;;;;18.55;8.55;;;;;;;;;;5059348;28;20487;-62
2022/06/18 14:17:04;;;;;;;22.02;8.30;;;;;;;;;;5068204;28;20438;-67
2022/06/18 14:19:32;;;;;;;17.88;7.63;;;;;;;;;;5062613;28;20451;-61
2022/06/18 14:22:16;;;;;;;20.63;8.60;;;;;;;;;;5061996;28;20377;-62
2022/06/18 14:24:42;;;;;;;25.60;10.38;;;;;;;;;;5060517;28;20481;-62
2022/06/18 14:27:19;;;;;;;20.17;9.10;;;;;;;;;;5058634;28;20507;-62
2022/06/18 14:29:45;;;;;;;18.33;9.00;;;;;;;;;;5058748;28;20927;-62
2022/06/18 14:32:31;;;;;;;30.33;10.57;;;;;;;;;;5060328;28;20380;-62
2022/06/18 14:35:03;;;;;;;24.55;8.80;;;;;;;;;;5061636;28;20025;-62
2022/06/18 14:37:32;;;;;;;29.25;9.85;;;;;;;;;;5058051;28;20032;-62
2022/06/18 14:40:00;;;;;;;25.98;10.35;;;;;;;;;;5062285;28;20033;-62
2022/06/18 14:42:36;;;;;;;20.58;9.82;;;;;;;;;;5061504;28;20032;-61
2022/06/18 14:45:14;;;;;;;26.20;10.95;;;;;;;;;;5063483;28;20033;-65
2022/06/18 14:47:46;;;;;;;28.33;11.30;;;;;;;;;;5062113;28;20029;-62
2022/06/18 14:50:12;;;;;;;26.80;10.57;;;;;;;;;;5058004;28;20021;-62
2022/06/18 14:53:02;;;;;;;23.50;10.95;;;;;;;;;;5053637;28;20029;-62
2022/06/18 14:55:37;;;;;;;28.08;11.82;;;;;;;;;;5063748;28;20125;-62
2022/06/18 14:58:03;;;;;;;25.98;11.35;;;;;;;;;;5067070;28;20020;-62
2022/06/18 15:01:02;;;;;;;35.72;12.30;;;;;;;;;;5064286;28;20052;-62
2022/06/18 15:03:31;;;;;;;34.28;13.15;;;;;;;;;;5035099;28;20055;-62